sensor_id;sensor_type;location;lat;lon;timestamp;pressure;altitude;pressure_sealevel;temperature;humidity
11329;BME280;5719;42.714;23.732;2022-11-06T00:00:40;93977.13;;;13.65;75.74
11329;BME280;5719;42.714;23.732;2022-11-06T00:03:08;93966.59;;;13.66;74.94
11329;BME280;5719;42.714;23.732;2022-11-06T00:05:39;93984.63;;;13.68;74.75
11329;BME280;5719;42.714;23.732;2022-11-06T00:08:34;93976.31;;;13.64;74.77
11329;BME280;5719;42.714;23.732;2022-11-06T00:11:07;93976.97;;;13.66;75.13
11329;BME280;5719;42.714;23.732;2022-11-06T00:13:34;93973.72;;;13.64;75.20
11329;BME280;5719;42.714;23.732;2022-11-06T00:16:02;93967.97;;;13.61;74.74
11329;BME280;5719;42.714;23.732;2022-11-06T00:18:29;93973.72;;;13.64;74.51
11329;BME280;5719;42.714;23.732;2022-11-06T00:20:56;93976.97;;;13.66;74.00
11329;BME280;5719;42.714;23.732;2022-11-06T00:23:23;93975.91;;;13.69;73.57
11329;BME280;5719;42.714;23.732;2022-11-06T00:25:51;93975.06;;;13.68;73.46
11329;BME280;5719;42.714;23.732;2022-11-06T00:28:21;93976.72;;;13.69;74.11
11329;BME280;5719;42.714;23.732;2022-11-06T00:30:47;93973.44;;;13.67;74.05
11329;BME280;5719;42.714;23.732;2022-11-06T00:33:14;93976.84;;;13.68;73.91
11329;BME280;5719;42.714;23.732;2022-11-06T00:35:41;93964.97;;;13.65;73.28
11329;BME280;5719;42.714;23.732;2022-11-06T00:38:08;93969.06;;;13.68;73.94
11329;BME280;5719;42.714;23.732;2022-11-06T00:40:35;93957.03;;;13.67;73.34
11329;BME280;5719;42.714;23.732;2022-11-06T00:43:03;93962.09;;;13.68;73.43
11329;BME280;5719;42.714;23.732;2022-11-06T00:45:30;93963.03;;;13.67;73.35
11329;BME280;5719;42.714;23.732;2022-11-06T00:47:57;93949.09;;;13.68;73.74
11329;BME280;5719;42.714;23.732;2022-11-06T00:50:24;93952.81;;;13.66;74.33
11329;BME280;5719;42.714;23.732;2022-11-06T00:52:51;93953.50;;;13.58;74.92
11329;BME280;5719;42.714;23.732;2022-11-06T00:55:18;93949.94;;;13.59;74.94
11329;BME280;5719;42.714;23.732;2022-11-06T00:57:45;93952.16;;;13.54;75.26
11329;BME280;5719;42.714;23.732;2022-11-06T01:00:14;93950.50;;;13.53;75.32
11329;BME280;5719;42.714;23.732;2022-11-06T01:02:43;93948.31;;;13.49;75.61
11329;BME280;5719;42.714;23.732;2022-11-06T01:05:10;93947.38;;;13.50;75.94
11329;BME280;5719;42.714;23.732;2022-11-06T01:07:38;93941.09;;;13.43;76.43
11329;BME280;5719;42.714;23.732;2022-11-06T01:10:05;93950.53;;;13.44;77.28
11329;BME280;5719;42.714;23.732;2022-11-06T01:12:33;93940.28;;;13.42;77.21
11329;BME280;5719;42.714;23.732;2022-11-06T01:15:01;93938.91;;;13.38;77.95
11329;BME280;5719;42.714;23.732;2022-11-06T01:17:29;93928.41;;;13.40;77.58
11329;BME280;5719;42.714;23.732;2022-11-06T01:19:55;93922.22;;;13.41;78.02
11329;BME280;5719;42.714;23.732;2022-11-06T01:22:22;93922.50;;;13.38;78.24
11329;BME280;5719;42.714;23.732;2022-11-06T01:24:49;93908.34;;;13.32;78.83
11329;BME280;5719;42.714;23.732;2022-11-06T01:27:16;93921.59;;;13.29;79.28
11329;BME280;5719;42.714;23.732;2022-11-06T01:29:43;93921.06;;;13.25;79.25
11329;BME280;5719;42.714;23.732;2022-11-06T01:32:10;93917.94;;;13.22;79.61
11329;BME280;5719;42.714;23.732;2022-11-06T01:34:38;93919.16;;;13.18;79.82
11329;BME280;5719;42.714;23.732;2022-11-06T01:37:05;93909.06;;;13.15;79.89
11329;BME280;5719;42.714;23.732;2022-11-06T01:39:32;93914.66;;;13.10;80.49
11329;BME280;5719;42.714;23.732;2022-11-06T01:41:59;93923.66;;;13.06;80.44
11329;BME280;5719;42.714;23.732;2022-11-06T01:47:41;93925.00;;;13.01;81.56
11329;BME280;5719;42.714;23.732;2022-11-06T01:50:11;93928.69;;;12.98;82.00
11329;BME280;5719;42.714;23.732;2022-11-06T01:52:39;93935.13;;;12.94;82.48
11329;BME280;5719;42.714;23.732;2022-11-06T01:55:11;93930.34;;;12.90;83.17
11329;BME280;5719;42.714;23.732;2022-11-06T01:57:39;93935.69;;;12.88;83.60
11329;BME280;5719;42.714;23.732;2022-11-06T02:00:08;93929.25;;;12.83;84.15
11329;BME280;5719;42.714;23.732;2022-11-06T02:02:36;93939.91;;;12.79;84.83
11329;BME280;5719;42.714;23.732;2022-11-06T02:05:05;93945.50;;;12.75;84.88
11329;BME280;5719;42.714;23.732;2022-11-06T02:07:33;93944.94;;;12.71;85.19
11329;BME280;5719;42.714;23.732;2022-11-06T02:10:01;93940.19;;;12.67;85.67
11329;BME280;5719;42.714;23.732;2022-11-06T02:12:51;93935.94;;;12.66;85.88
11329;BME280;5719;42.714;23.732;2022-11-06T02:15:26;93936.50;;;12.60;86.45
11329;BME280;5719;42.714;23.732;2022-11-06T02:18:07;93951.34;;;12.58;87.24
11329;BME280;5719;42.714;23.732;2022-11-06T02:20:38;93957.63;;;12.55;87.93
11329;BME280;5719;42.714;23.732;2022-11-06T02:23:30;93965.69;;;12.52;89.38
11329;BME280;5719;42.714;23.732;2022-11-06T02:26:12;93950.25;;;12.51;90.27
11329;BME280;5719;42.714;23.732;2022-11-06T02:28:49;93965.69;;;12.52;88.92
11329;BME280;5719;42.714;23.732;2022-11-06T02:31:19;93962.28;;;12.52;90.09
11329;BME280;5719;42.714;23.732;2022-11-06T02:33:53;93971.28;;;12.57;90.96
11329;BME280;5719;42.714;23.732;2022-11-06T02:36:26;93983.03;;;12.61;91.59
11329;BME280;5719;42.714;23.732;2022-11-06T02:38:57;93989.84;;;12.62;89.77
11329;BME280;5719;42.714;23.732;2022-11-06T02:41:30;93996.53;;;12.65;89.99
11329;BME280;5719;42.714;23.732;2022-11-06T02:44:00;94004.31;;;12.65;89.50
11329;BME280;5719;42.714;23.732;2022-11-06T02:46:32;94018.94;;;12.66;89.63
11329;BME280;5719;42.714;23.732;2022-11-06T02:49:03;94018.09;;;12.65;90.19
11329;BME280;5719;42.714;23.732;2022-11-06T02:51:35;94015.78;;;12.62;91.73
11329;BME280;5719;42.714;23.732;2022-11-06T02:54:05;94011.69;;;12.60;93.62
11329;BME280;5719;42.714;23.732;2022-11-06T02:56:36;94016.06;;;12.59;93.41
11329;BME280;5719;42.714;23.732;2022-11-06T02:59:08;94009.78;;;12.52;98.03
11329;BME280;5719;42.714;23.732;2022-11-06T03:01:41;94026.72;;;12.56;97.12
11329;BME280;5719;42.714;23.732;2022-11-06T03:04:13;94026.16;;;12.53;97.10
11329;BME280;5719;42.714;23.732;2022-11-06T03:06:45;94029.53;;;12.53;97.97
11329;BME280;5719;42.714;23.732;2022-11-06T03:09:18;94027.22;;;12.50;99.19
11329;BME280;5719;42.714;23.732;2022-11-06T03:11:49;94027.31;;;12.39;98.29
11329;BME280;5719;42.714;23.732;2022-11-06T03:14:23;94040.03;;;12.42;100.00
11329;BME280;5719;42.714;23.732;2022-11-06T03:16:56;94031.00;;;12.37;99.78
11329;BME280;5719;42.714;23.732;2022-11-06T03:19:27;94033.31;;;12.30;100.00
11329;BME280;5719;42.714;23.732;2022-11-06T03:22:01;94025.66;;;12.28;100.00
11329;BME280;5719;42.714;23.732;2022-11-06T03:24:33;94018.97;;;12.26;100.00
11329;BME280;5719;42.714;23.732;2022-11-06T03:27:06;94024.16;;;12.26;100.00
11329;BME280;5719;42.714;23.732;2022-11-06T03:29:39;94019.78;;;12.26;100.00
11329;BME280;5719;42.714;23.732;2022-11-06T03:32:12;94025.34;;;12.22;100.00
11329;BME280;5719;42.714;23.732;2022-11-06T03:34:44;94014.31;;;12.20;100.00
11329;BME280;5719;42.714;23.732;2022-11-06T03:37:16;94017.59;;;12.22;100.00
11329;BME280;5719;42.714;23.732;2022-11-06T03:39:47;94019.34;;;12.21;100.00
11329;BME280;5719;42.714;23.732;2022-11-06T03:42:19;94033.03;;;12.23;100.00
11329;BME280;5719;42.714;23.732;2022-11-06T03:44:51;94024.28;;;12.24;100.00
11329;BME280;5719;42.714;23.732;2022-11-06T03:47:21;94023.22;;;12.27;100.00
11329;BME280;5719;42.714;23.732;2022-11-06T03:49:53;94030.44;;;12.23;100.00
11329;BME280;5719;42.714;23.732;2022-11-06T03:52:27;94016.50;;;12.24;100.00
11329;BME280;5719;42.714;23.732;2022-11-06T03:54:58;94028.25;;;12.28;100.00
11329;BME280;5719;42.714;23.732;2022-11-06T03:57:32;94031.53;;;12.31;100.00
11329;BME280;5719;42.714;23.732;2022-11-06T04:00:04;94024.81;;;12.28;100.00
11329;BME280;5719;42.714;23.732;2022-11-06T04:02:34;94027.97;;;12.32;100.00
11329;BME280;5719;42.714;23.732;2022-11-06T04:05:06;94023.88;;;12.29;100.00
11329;BME280;5719;42.714;23.732;2022-11-06T04:07:38;94013.78;;;12.26;100.00
11329;BME280;5719;42.714;23.732;2022-11-06T04:10:09;94027.13;;;12.21;100.00
11329;BME280;5719;42.714;23.732;2022-11-06T04:12:55;94017.28;;;12.15;100.00
11329;BME280;5719;42.714;23.732;2022-11-06T04:15:48;94024.78;;;12.09;100.00
11329;BME280;5719;42.714;23.732;2022-11-06T04:18:18;94013.72;;;12.07;100.00
11329;BME280;5719;42.714;23.732;2022-11-06T04:20:50;94008.25;;;12.10;100.00
11329;BME280;5719;42.714;23.732;2022-11-06T04:23:43;94020.72;;;12.16;100.00
11329;BME280;5719;42.714;23.732;2022-11-06T04:26:41;94014.44;;;12.18;100.00
11329;BME280;5719;42.714;23.732;2022-11-06T04:29:17;94017.84;;;12.19;100.00
11329;BME280;5719;42.714;23.732;2022-11-06T04:31:50;94016.19;;;12.18;100.00
11329;BME280;5719;42.714;23.732;2022-11-06T04:34:24;94027.00;;;12.23;100.00
11329;BME280;5719;42.714;23.732;2022-11-06T04:37:00;94021.94;;;12.21;100.00
11329;BME280;5719;42.714;23.732;2022-11-06T04:39:36;94008.44;;;12.18;100.00
11329;BME280;5719;42.714;23.732;2022-11-06T04:42:10;94021.81;;;12.23;100.00
11329;BME280;5719;42.714;23.732;2022-11-06T04:44:38;94023.84;;;12.19;100.00
11329;BME280;5719;42.714;23.732;2022-11-06T04:47:12;94029.03;;;12.19;100.00
11329;BME280;5719;42.714;23.732;2022-11-06T04:49:42;94024.13;;;12.16;100.00
11329;BME280;5719;42.714;23.732;2022-11-06T04:52:12;94023.31;;;12.16;100.00
11329;BME280;5719;42.714;23.732;2022-11-06T04:54:40;94032.97;;;12.14;100.00
11329;BME280;5719;42.714;23.732;2022-11-06T04:57:07;94025.44;;;12.11;100.00
11329;BME280;5719;42.714;23.732;2022-11-06T04:59:35;94021.09;;;12.11;100.00
11329;BME280;5719;42.714;23.732;2022-11-06T05:02:02;94025.44;;;12.11;100.00
11329;BME280;5719;42.714;23.732;2022-11-06T05:04:31;94023.94;;;12.08;100.00
11329;BME280;5719;42.714;23.732;2022-11-06T05:06:58;94028.19;;;12.09;100.00
11329;BME280;5719;42.714;23.732;2022-11-06T05:09:25;94028.03;;;12.11;100.00
11329;BME280;5719;42.714;23.732;2022-11-06T05:11:52;94029.53;;;12.13;100.00
11329;BME280;5719;42.714;23.732;2022-11-06T05:14:19;94032.84;;;12.15;100.00
11329;BME280;5719;42.714;23.732;2022-11-06T05:16:45;94041.03;;;12.20;100.00
11329;BME280;5719;42.714;23.732;2022-11-06T05:19:12;94041.59;;;12.24;100.00
11329;BME280;5719;42.714;23.732;2022-11-06T05:21:41;94037.78;;;12.28;100.00
11329;BME280;5719;42.714;23.732;2022-11-06T05:24:25;94039.31;;;12.31;100.00
11329;BME280;5719;42.714;23.732;2022-11-06T05:26:52;94052.00;;;12.34;100.00
11329;BME280;5719;42.714;23.732;2022-11-06T05:29:19;94038.78;;;12.37;100.00
11329;BME280;5719;42.714;23.732;2022-11-06T05:31:45;94052.28;;;12.40;100.00
11329;BME280;5719;42.714;23.732;2022-11-06T05:34:12;94055.31;;;12.45;100.00
11329;BME280;5719;42.714;23.732;2022-11-06T05:36:41;94058.22;;;12.52;100.00
11329;BME280;5719;42.714;23.732;2022-11-06T05:39:08;94062.19;;;12.56;100.00
11329;BME280;5719;42.714;23.732;2022-11-06T05:41:34;94060.81;;;12.61;100.00
11329;BME280;5719;42.714;23.732;2022-11-06T05:44:01;94073.13;;;12.69;100.00
11329;BME280;5719;42.714;23.732;2022-11-06T05:46:28;94080.50;;;12.73;100.00
11329;BME280;5719;42.714;23.732;2022-11-06T05:48:56;94082.00;;;12.76;100.00
11329;BME280;5719;42.714;23.732;2022-11-06T05:51:23;94082.44;;;12.81;100.00
11329;BME280;5719;42.714;23.732;2022-11-06T05:53:51;94097.19;;;12.81;100.00
11329;BME280;5719;42.714;23.732;2022-11-06T05:56:18;94092.66;;;12.83;100.00
11329;BME280;5719;42.714;23.732;2022-11-06T05:58:46;94096.91;;;12.84;100.00
11329;BME280;5719;42.714;23.732;2022-11-06T06:01:13;94097.63;;;12.86;100.00
11329;BME280;5719;42.714;23.732;2022-11-06T06:03:40;94095.69;;;12.88;100.00
11329;BME280;5719;42.714;23.732;2022-11-06T06:06:07;94096.13;;;12.93;100.00
11329;BME280;5719;42.714;23.732;2022-11-06T06:08:34;94099.41;;;12.95;100.00
11329;BME280;5719;42.714;23.732;2022-11-06T06:11:04;94105.97;;;12.99;100.00
11329;BME280;5719;42.714;23.732;2022-11-06T06:13:32;94113.22;;;13.05;100.00
11329;BME280;5719;42.714;23.732;2022-11-06T06:16:00;94129.25;;;13.10;100.00
11329;BME280;5719;42.714;23.732;2022-11-06T06:18:27;94119.13;;;13.16;100.00
11329;BME280;5719;42.714;23.732;2022-11-06T06:20:56;94129.13;;;13.21;100.00
11329;BME280;5719;42.714;23.732;2022-11-06T06:23:22;94124.22;;;13.27;100.00
11329;BME280;5719;42.714;23.732;2022-11-06T06:25:49;94132.44;;;13.33;100.00
11329;BME280;5719;42.714;23.732;2022-11-06T06:28:18;94132.16;;;13.36;100.00
11329;BME280;5719;42.714;23.732;2022-11-06T06:30:45;94129.00;;;13.32;100.00
11329;BME280;5719;42.714;23.732;2022-11-06T06:33:12;94135.28;;;13.39;100.00
11329;BME280;5719;42.714;23.732;2022-11-06T06:35:38;94136.94;;;13.40;100.00
11329;BME280;5719;42.714;23.732;2022-11-06T06:38:05;94134.91;;;13.44;100.00
11329;BME280;5719;42.714;23.732;2022-11-06T06:40:32;94144.72;;;13.50;100.00
11329;BME280;5719;42.714;23.732;2022-11-06T06:42:59;94140.75;;;13.55;100.00
11329;BME280;5719;42.714;23.732;2022-11-06T06:45:27;94146.66;;;13.57;100.00
11329;BME280;5719;42.714;23.732;2022-11-06T06:47:54;94153.63;;;13.66;100.00
11329;BME280;5719;42.714;23.732;2022-11-06T06:50:21;94145.28;;;13.72;100.00
11329;BME280;5719;42.714;23.732;2022-11-06T06:52:48;94153.47;;;13.77;100.00
11329;BME280;5719;42.714;23.732;2022-11-06T06:55:15;94154.44;;;13.86;100.00
11329;BME280;5719;42.714;23.732;2022-11-06T06:57:42;94156.63;;;13.91;100.00
11329;BME280;5719;42.714;23.732;2022-11-06T07:00:09;94159.63;;;13.96;100.00
11329;BME280;5719;42.714;23.732;2022-11-06T07:02:38;94153.06;;;14.01;99.96
11329;BME280;5719;42.714;23.732;2022-11-06T07:05:06;94153.06;;;14.01;100.00
11329;BME280;5719;42.714;23.732;2022-11-06T07:07:33;94154.16;;;13.99;100.00
11329;BME280;5719;42.714;23.732;2022-11-06T07:10:00;94167.97;;;14.09;100.00
11329;BME280;5719;42.714;23.732;2022-11-06T07:12:27;94165.75;;;14.14;99.58
11329;BME280;5719;42.714;23.732;2022-11-06T07:14:53;94164.81;;;14.15;98.97
11329;BME280;5719;42.714;23.732;2022-11-06T07:17:20;94168.78;;;14.19;98.57
11329;BME280;5719;42.714;23.732;2022-11-06T07:19:49;94162.47;;;14.21;98.70
11329;BME280;5719;42.714;23.732;2022-11-06T07:22:18;94167.25;;;14.26;98.19
11329;BME280;5719;42.714;23.732;2022-11-06T07:24:45;94174.09;;;14.27;98.42
11329;BME280;5719;42.714;23.732;2022-11-06T07:27:12;94176.53;;;14.29;98.65
11329;BME280;5719;42.714;23.732;2022-11-06T07:29:38;94180.50;;;14.33;99.19
11329;BME280;5719;42.714;23.732;2022-11-06T07:32:07;94175.88;;;14.36;97.98
11329;BME280;5719;42.714;23.732;2022-11-06T07:34:34;94181.50;;;14.41;97.55
11329;BME280;5719;42.714;23.732;2022-11-06T07:37:05;94175.34;;;14.42;97.33
11329;BME280;5719;42.714;23.732;2022-11-06T07:39:32;94177.25;;;14.50;97.19
11329;BME280;5719;42.714;23.732;2022-11-06T07:42:00;94166.38;;;14.54;96.30
11329;BME280;5719;42.714;23.732;2022-11-06T07:44:27;94178.72;;;14.52;96.49
11329;BME280;5719;42.714;23.732;2022-11-06T07:46:53;94187.47;;;14.51;96.63
11329;BME280;5719;42.714;23.732;2022-11-06T07:49:20;94192.16;;;14.48;97.00
11329;BME280;5719;42.714;23.732;2022-11-06T07:51:47;94197.47;;;14.46;96.69
11329;BME280;5719;42.714;23.732;2022-11-06T07:54:16;94201.88;;;14.46;97.22
11329;BME280;5719;42.714;23.732;2022-11-06T07:56:43;94186.69;;;14.41;96.45
11329;BME280;5719;42.714;23.732;2022-11-06T07:59:09;94203.94;;;14.42;96.71
11329;BME280;5719;42.714;23.732;2022-11-06T08:01:36;94203.78;;;14.44;96.31
11329;BME280;5719;42.714;23.732;2022-11-06T08:04:03;94212.28;;;14.46;97.38
11329;BME280;5719;42.714;23.732;2022-11-06T08:06:30;94207.09;;;14.46;98.15
11329;BME280;5719;42.714;23.732;2022-11-06T08:08:57;94225.00;;;14.49;99.66
11329;BME280;5719;42.714;23.732;2022-11-06T08:11:25;94226.66;;;14.50;100.00
11329;BME280;5719;42.714;23.732;2022-11-06T08:13:53;94239.78;;;14.48;100.00
11329;BME280;5719;42.714;23.732;2022-11-06T08:16:20;94232.13;;;14.47;100.00
11329;BME280;5719;42.714;23.732;2022-11-06T08:18:47;94242.53;;;14.47;100.00
11329;BME280;5719;42.714;23.732;2022-11-06T08:21:14;94233.75;;;14.48;100.00
11329;BME280;5719;42.714;23.732;2022-11-06T08:23:40;94238.13;;;14.47;100.00
11329;BME280;5719;42.714;23.732;2022-11-06T08:26:07;94238.56;;;14.43;100.00
11329;BME280;5719;42.714;23.732;2022-11-06T08:28:38;94232.41;;;14.44;100.00
11329;BME280;5719;42.714;23.732;2022-11-06T08:31:06;94244.88;;;14.50;100.00
11329;BME280;5719;42.714;23.732;2022-11-06T08:33:34;94238.69;;;14.60;100.00
11329;BME280;5719;42.714;23.732;2022-11-06T08:36:02;94246.34;;;14.62;100.00
11329;BME280;5719;42.714;23.732;2022-11-06T08:38:30;94244.97;;;14.58;100.00
11329;BME280;5719;42.714;23.732;2022-11-06T08:40:57;94247.28;;;14.61;100.00
11329;BME280;5719;42.714;23.732;2022-11-06T08:43:24;94247.16;;;14.62;100.00
11329;BME280;5719;42.714;23.732;2022-11-06T08:45:53;94247.16;;;14.62;100.00
11329;BME280;5719;42.714;23.732;2022-11-06T08:48:20;94247.69;;;14.66;100.00
11329;BME280;5719;42.714;23.732;2022-11-06T08:50:47;94242.50;;;14.66;100.00
11329;BME280;5719;42.714;23.732;2022-11-06T08:53:14;94246.47;;;14.70;100.00
11329;BME280;5719;42.714;23.732;2022-11-06T08:55:41;94246.03;;;14.75;100.00
11329;BME280;5719;42.714;23.732;2022-11-06T08:58:08;94244.97;;;14.67;100.00
11329;BME280;5719;42.714;23.732;2022-11-06T09:00:35;94249.34;;;14.57;100.00
11329;BME280;5719;42.714;23.732;2022-11-06T09:03:05;94246.91;;;14.46;100.00
11329;BME280;5719;42.714;23.732;2022-11-06T09:05:32;94252.38;;;14.43;100.00
11329;BME280;5719;42.714;23.732;2022-11-06T09:07:59;94259.81;;;14.38;100.00
11329;BME280;5719;42.714;23.732;2022-11-06T09:10:27;94261.94;;;14.33;100.00
11329;BME280;5719;42.714;23.732;2022-11-06T09:12:54;94259.63;;;14.30;100.00
11329;BME280;5719;42.714;23.732;2022-11-06T09:15:23;94263.34;;;14.37;100.00
11329;BME280;5719;42.714;23.732;2022-11-06T09:17:50;94265.66;;;14.40;100.00
11329;BME280;5719;42.714;23.732;2022-11-06T09:20:20;94267.16;;;14.43;100.00
11329;BME280;5719;42.714;23.732;2022-11-06T09:22:49;94262.94;;;14.42;100.00
11329;BME280;5719;42.714;23.732;2022-11-06T09:25:17;94270.47;;;14.45;100.00
11329;BME280;5719;42.714;23.732;2022-11-06T09:27:45;94263.47;;;14.26;100.00
11329;BME280;5719;42.714;23.732;2022-11-06T09:30:15;94263.88;;;14.12;100.00
11329;BME280;5719;42.714;23.732;2022-11-06T09:32:46;94264.16;;;14.09;100.00
11329;BME280;5719;42.714;23.732;2022-11-06T09:35:14;94279.03;;;13.88;100.00
11329;BME280;5719;42.714;23.732;2022-11-06T09:37:42;94276.44;;;13.88;100.00
11329;BME280;5719;42.714;23.732;2022-11-06T09:40:18;94275.75;;;13.86;100.00
11329;BME280;5719;42.714;23.732;2022-11-06T09:42:52;94284.09;;;13.80;100.00
11329;BME280;5719;42.714;23.732;2022-11-06T09:45:24;94280.38;;;13.82;100.00
11329;BME280;5719;42.714;23.732;2022-11-06T09:47:56;94284.09;;;13.80;100.00
11329;BME280;5719;42.714;23.732;2022-11-06T09:50:28;94283.25;;;13.79;100.00
11329;BME280;5719;42.714;23.732;2022-11-06T09:52:58;94271.47;;;13.65;100.00
11329;BME280;5719;42.714;23.732;2022-11-06T09:55:37;94275.84;;;13.65;100.00
11329;BME280;5719;42.714;23.732;2022-11-06T09:58:10;94280.09;;;13.66;100.00
11329;BME280;5719;42.714;23.732;2022-11-06T10:00:39;94282.44;;;13.69;100.00
11329;BME280;5719;42.714;23.732;2022-11-06T10:03:12;94277.78;;;13.72;100.00
11329;BME280;5719;42.714;23.732;2022-11-06T10:05:42;94281.59;;;13.68;100.00
11329;BME280;5719;42.714;23.732;2022-11-06T10:08:15;94279.56;;;13.72;100.00
11329;BME280;5719;42.714;23.732;2022-11-06T10:10:50;94273.81;;;13.68;100.00
11329;BME280;5719;42.714;23.732;2022-11-06T10:16:14;94280.13;;;13.75;100.00
11329;BME280;5719;42.714;23.732;2022-11-06T10:18:50;94280.13;;;13.75;100.00
11329;BME280;5719;42.714;23.732;2022-11-06T10:21:22;94285.31;;;13.75;100.00
11329;BME280;5719;42.714;23.732;2022-11-06T10:23:55;94290.50;;;13.75;100.00
11329;BME280;5719;42.714;23.732;2022-11-06T10:26:29;94287.91;;;13.75;100.00
11329;BME280;5719;42.714;23.732;2022-11-06T10:29:18;94276.72;;;13.94;100.00
11329;BME280;5719;42.714;23.732;2022-11-06T10:31:58;94280.53;;;14.00;100.00
11329;BME280;5719;42.714;23.732;2022-11-06T10:34:35;94293.56;;;14.09;100.00
11329;BME280;5719;42.714;23.732;2022-11-06T10:37:06;94300.53;;;14.09;100.00
11329;BME280;5719;42.714;23.732;2022-11-06T10:39:37;94297.78;;;14.01;100.00
11329;BME280;5719;42.714;23.732;2022-11-06T10:42:10;94303.09;;;13.90;100.00
11329;BME280;5719;42.714;23.732;2022-11-06T10:44:42;94289.69;;;13.75;100.00
11329;BME280;5719;42.714;23.732;2022-11-06T10:47:15;94291.28;;;13.66;100.00
11329;BME280;5719;42.714;23.732;2022-11-06T10:49:45;94293.75;;;13.68;100.00
11329;BME280;5719;42.714;23.732;2022-11-06T10:55:38;94288.84;;;13.65;100.00
11329;BME280;5719;42.714;23.732;2022-11-06T10:58:08;94288.56;;;13.58;100.00
11329;BME280;5719;42.714;23.732;2022-11-06T11:00:38;94283.03;;;13.52;100.00
11329;BME280;5719;42.714;23.732;2022-11-06T11:03:10;94283.31;;;13.49;100.00
11329;BME280;5719;42.714;23.732;2022-11-06T11:05:42;94276.06;;;13.43;100.00
11329;BME280;5719;42.714;23.732;2022-11-06T11:08:32;94268.81;;;13.37;100.00
11329;BME280;5719;42.714;23.732;2022-11-06T11:11:03;94258.56;;;13.45;100.00
11329;BME280;5719;42.714;23.732;2022-11-06T11:13:30;94254.19;;;13.45;100.00
11329;BME280;5719;42.714;23.732;2022-11-06T11:15:57;94259.81;;;13.50;100.00
11329;BME280;5719;42.714;23.732;2022-11-06T11:18:25;94255.31;;;13.52;100.00
11329;BME280;5719;42.714;23.732;2022-11-06T11:21:06;94251.50;;;13.56;100.00
11329;BME280;5719;42.714;23.732;2022-11-06T11:23:39;94253.81;;;13.59;100.00
11329;BME280;5719;42.714;23.732;2022-11-06T11:26:19;94251.09;;;13.61;100.00
11329;BME280;5719;42.714;23.732;2022-11-06T11:28:50;94244.13;;;13.61;100.00
11329;BME280;5719;42.714;23.732;2022-11-06T11:31:18;94242.91;;;13.65;100.00
11329;BME280;5719;42.714;23.732;2022-11-06T11:33:50;94245.78;;;13.72;100.00
11329;BME280;5719;42.714;23.732;2022-11-06T11:36:18;94246.06;;;13.79;100.00
11329;BME280;5719;42.714;23.732;2022-11-06T11:38:45;94246.88;;;13.89;100.00
11329;BME280;5719;42.714;23.732;2022-11-06T11:41:21;94244.88;;;14.02;100.00
11329;BME280;5719;42.714;23.732;2022-11-06T11:43:55;94239.78;;;14.10;100.00
11329;BME280;5719;42.714;23.732;2022-11-06T11:46:22;94245.81;;;14.10;100.00
11329;BME280;5719;42.714;23.732;2022-11-06T11:48:50;94236.63;;;14.06;100.00
11329;BME280;5719;42.714;23.732;2022-11-06T11:51:28;94238.81;;;14.11;100.00
11329;BME280;5719;42.714;23.732;2022-11-06T11:53:58;94236.22;;;14.11;100.00
11329;BME280;5719;42.714;23.732;2022-11-06T11:56:27;94227.75;;;14.18;100.00
11329;BME280;5719;42.714;23.732;2022-11-06T11:58:55;94229.13;;;14.22;100.00
11329;BME280;5719;42.714;23.732;2022-11-06T12:01:33;94231.84;;;14.21;100.00
11329;BME280;5719;42.714;23.732;2022-11-06T12:04:08;94235.41;;;14.30;100.00
11329;BME280;5719;42.714;23.732;2022-11-06T12:06:58;94237.06;;;14.31;100.00
11329;BME280;5719;42.714;23.732;2022-11-06T12:09:28;94245.53;;;14.33;100.00
11329;BME280;5719;42.714;23.732;2022-11-06T12:11:58;94246.63;;;14.40;100.00
11329;BME280;5719;42.714;23.732;2022-11-06T12:14:31;94234.34;;;14.42;100.00
11329;BME280;5719;42.714;23.732;2022-11-06T12:17:08;94239.78;;;14.48;100.00
11329;BME280;5719;42.714;23.732;2022-11-06T12:19:38;94238.56;;;14.52;100.00
11329;BME280;5719;42.714;23.732;2022-11-06T12:22:11;94232.13;;;14.56;100.00
11329;BME280;5719;42.714;23.732;2022-11-06T12:24:46;94238.53;;;14.62;100.00
11329;BME280;5719;42.714;23.732;2022-11-06T12:27:19;94239.47;;;14.61;100.00
11329;BME280;5719;42.714;23.732;2022-11-06T12:29:50;94227.59;;;14.58;100.00
11329;BME280;5719;42.714;23.732;2022-11-06T12:32:25;94230.19;;;14.68;100.00
11329;BME280;5719;42.714;23.732;2022-11-06T12:35:02;94234.66;;;14.76;100.00
11329;BME280;5719;42.714;23.732;2022-11-06T12:37:39;94241.75;;;14.83;100.00
11329;BME280;5719;42.714;23.732;2022-11-06T12:40:18;94236.13;;;14.88;100.00
11329;BME280;5719;42.714;23.732;2022-11-06T12:42:57;94235.44;;;14.95;100.00
11329;BME280;5719;42.714;23.732;2022-11-06T12:45:35;94245.19;;;14.93;96.12
11329;BME280;5719;42.714;23.732;2022-11-06T12:48:12;94243.13;;;14.87;95.90
11329;BME280;5719;42.714;23.732;2022-11-06T12:50:47;94251.75;;;14.88;95.93
11329;BME280;5719;42.714;23.732;2022-11-06T12:53:23;94258.19;;;14.84;97.06
11329;BME280;5719;42.714;23.732;2022-11-06T12:55:57;94264.09;;;14.86;97.23
11329;BME280;5719;42.714;23.732;2022-11-06T13:01:39;94265.63;;;14.79;96.70
11329;BME280;5719;42.714;23.732;2022-11-06T13:04:27;94262.47;;;14.75;96.02
11329;BME280;5719;42.714;23.732;2022-11-06T13:07:04;94268.06;;;14.80;96.75
11329;BME280;5719;42.714;23.732;2022-11-06T13:09:39;94270.91;;;14.87;97.56
11329;BME280;5719;42.714;23.732;2022-11-06T13:12:14;94267.91;;;14.91;96.31
11329;BME280;5719;42.714;23.732;2022-11-06T13:14:52;94264.09;;;14.86;97.64
11329;BME280;5719;42.714;23.732;2022-11-06T13:17:27;94267.66;;;14.85;98.38
11329;BME280;5719;42.714;23.732;2022-11-06T13:19:59;94274.75;;;14.83;96.77
11329;BME280;5719;42.714;23.732;2022-11-06T13:22:33;94272.34;;;14.71;98.45